Terminal Aerodrome Forecast
Issued by NWS

Home | Current Version | Previous Version | Text Only | Print | Product List | Glossary On
Versions: 1 2 3 4 5 6 7 8 9 10 11 12 13 14 15 16 17 18 19 20 21 22 23 24 25 26 27
114
FTUS46 KSGX 221516 AAA
TAFSAN
TAF AMD
KSAN 221516Z 2215/2318 35005KT P6SM SCT007 SCT013 BKN019
      TEMPO 2215/2216 3SM -RA
     FM221600 VRB05KT P6SM SCT010 BKN060
     FM221900 29012G20KT P6SM BKN050
     FM230200 29007KT P6SM SCT025 BKN050
     FM230800 VRB05KT P6SM BKN022
     FM231200 VRB04KT P6SM SCT025=

USA.gov is the U.S. government's official web portal to all federal, state and local government web resources and services.